WetterOnline ( https://www.wetteronline.de )

Wetter aktuell Schwäbisch Gmünd

Aktuelles Wetter: Kaisersbach-Cronhütte (489m)

6-stündlich | Neueste Meldungen
Ortszeit Temperatur Wetter
Di, 22.10. 14:00 13.2° C wolkig
Di, 22.10. 8:00 6.6° C wolkig
Di, 22.10. 2:00 8.9° C wolkig
Mo, 21.10. 20:00 12.4° C bedeckt
Mo, 21.10. 14:00 18.0° C leicht bewölkt
Mo, 21.10. 8:00 8.5° C wolkig
Mo, 21.10. 2:00 11.9° C wolkenlos
So, 20.10. 20:00 12.3° C bewölkt
Ortszeit Temperatur Wetter
Di, 22.10. 17:30 14.0° C wolkig
Di, 22.10. 17:20 14.0° C wolkig
Di, 22.10. 17:10 14.7° C wolkig
Di, 22.10. 17:00 14.9° C leicht bewölkt
Di, 22.10. 16:50 14.9° C wolkig
Di, 22.10. 16:40 14.8° C wolkig
Di, 22.10. 16:30 14.8° C wolkig
Di, 22.10. 16:00 14.7° C leicht bewölkt
Di, 22.10. 15:30 14.3° C wolkig
Di, 22.10. 15:00 14.1° C wolkig
Di, 22.10. 14:30 13.7° C wolkig
Ortszeit Relative Feuchte Sichtweite
Di, 22.10. 14:00 78% 45 km
Di, 22.10. 8:00 99% 1.7 km
Di, 22.10. 2:00 100% 15 km
Mo, 21.10. 20:00 94% 23 km
Mo, 21.10. 14:00 59% 65 km
Mo, 21.10. 8:00 99% 3.6 km
Mo, 21.10. 2:00 96% 12 km
So, 20.10. 20:00 97% 26 km
Ortszeit Relative Feuchte Sichtweite
Di, 22.10. 17:30 82% 30 km
Di, 22.10. 17:20 82% -
Di, 22.10. 17:10 76% -
Di, 22.10. 17:00 77% 27 km
Di, 22.10. 16:50 77% -
Di, 22.10. 16:40 76% -
Di, 22.10. 16:30 75% 30 km
Di, 22.10. 16:00 74% 30 km
Di, 22.10. 15:30 77% 26 km
Di, 22.10. 15:00 79% 24 km
Di, 22.10. 14:30 79% 30 km
Ortszeit Niederschlagsmenge Niederschlagsart
Di, 22.10. 14:00 0.0 l/m2 in 6 Std. -
Di, 22.10. 8:00 0.1 l/m2 in 12 Std. -
Di, 22.10. 2:00 0.1 l/m2 in 6 Std. Regen
Mo, 21.10. 20:00 0.1 l/m2 in 12 Std. Regen
Mo, 21.10. 14:00 0.0 l/m2 in 6 Std. -
Mo, 21.10. 8:00 0.0 l/m2 in 12 Std. -
Mo, 21.10. 2:00 0.0 l/m2 in 6 Std. -
So, 20.10. 20:00 0.0 l/m2 in 12 Std. -
Ortszeit Niederschlagsmenge Niederschlagsart
Di, 22.10. 17:30 0.0 l/m2 in 1 Std. -
Di, 22.10. 17:20 keine Meldung -
Di, 22.10. 17:10 keine Meldung -
Di, 22.10. 17:00 0.0 l/m2 in 1 Std. -
Di, 22.10. 16:50 keine Meldung -
Di, 22.10. 16:40 keine Meldung -
Di, 22.10. 16:30 0.0 l/m2 in 1 Std. -
Di, 22.10. 16:00 0.0 l/m2 in 1 Std. -
Di, 22.10. 15:30 0.0 l/m2 in 1 Std. -
Di, 22.10. 15:00 0.0 l/m2 in 1 Std. -
Di, 22.10. 14:30 0.0 l/m2 in 1 Std. -
Ortszeit Stärke Spitze Richtung
km/h Bft. km/h Grad Sektor
Di, 22.10. 14:00 9 2 17 40° NO
Di, 22.10. 8:00 2 1 7 350° N
Di, 22.10. 2:00 0 0 11 - -
Mo, 21.10. 20:00 4 1 22 360° N
Mo, 21.10. 14:00 11 2 22 320° NW
Mo, 21.10. 8:00 4 1 7 330° NW
Mo, 21.10. 2:00 4 1 50 50° NO
So, 20.10. 20:00 4 1 22 300° NW
Ortszeit Stärke Spitze Richtung
km/h Bft. km/h Grad Sektor
Di, 22.10. 17:30 4 1 11 40° NO
Di, 22.10. 17:20 4 1 - 40° NO
Di, 22.10. 17:10 4 1 - 60° NO
Di, 22.10. 17:00 6 1 15 50° NO
Di, 22.10. 16:50 6 1 - 50° NO
Di, 22.10. 16:40 9 2 - 60° NO
Di, 22.10. 16:30 7 2 14 80° O
Di, 22.10. 16:00 11 2 18 40° NO
Di, 22.10. 15:30 9 2 17 50° NO
Di, 22.10. 15:00 7 2 15 60° NO
Di, 22.10. 14:30 7 2 14 30° NO
Ortszeit Untergrenze Bedeckung Gattung
total tief tief mittel hoch
Di, 22.10. 14:00 9000 m 8/8 0/8 - - -
Di, 22.10. 8:00 <30 m 7/8 0/8 - - -
Di, 22.10. 2:00 <30 m 8/8 0/8 - - -
Mo, 21.10. 20:00 2700 m 8/8 8/8 - - -
Mo, 21.10. 14:00 2100 m 8/8 1/8 - - -
Mo, 21.10. 8:00 <30 m 8/8 0/8 - - -
Mo, 21.10. 2:00 - 0/8 0/8 - - -
So, 20.10. 20:00 6900 m 8/8 6/8 - - -
Ortszeit Bedeckungsgrad in Achtel und Wolkenuntergrenze
Di, 22.10. 17:30 7(10500m) 7(12000m)
Di, 22.10. 17:20 7(10500m) 7(12000m)
Di, 22.10. 17:10 7(10500m) 7(10500m)
Di, 22.10. 17:00 6(10500m) 7(10500m)
Di, 22.10. 16:50 6(10500m) 7(10500m)
Di, 22.10. 16:40 4(10500m) 7(10500m)
Di, 22.10. 16:30 7(10500m)
Di, 22.10. 16:00 8(10500m) 8(12000m)
Di, 22.10. 15:30 8(9000m)
Di, 22.10. 15:00 8(9000m)
Di, 22.10. 14:30 8(9000m)
Ortszeit Luftdruck NN (hPa) Tendenz (hPa in 3 Std.)
Di, 22.10. 14:00 1025 + 0,4
Di, 22.10. 8:00 1024 - 1,0
Di, 22.10. 2:00 1024 + 0,6
Mo, 21.10. 20:00 1022 + 1,4
Mo, 21.10. 14:00 1019 + 1,2
Mo, 21.10. 8:00 1018 + 2,2
Mo, 21.10. 2:00 1012 + 1,9
So, 20.10. 20:00 1009 + 1,3
Ortszeit Luftdruck NN (hPa) Tendenz (hPa in 3 Std.)
Di, 22.10. 17:30 1023 - 1,3
Di, 22.10. 17:20 1023 keine Meldung
Di, 22.10. 17:10 1022 keine Meldung
Di, 22.10. 17:00 1023 - 1,6
Di, 22.10. 16:50 1023 keine Meldung
Di, 22.10. 16:40 1022 keine Meldung
Di, 22.10. 16:30 1023 - 1,3
Di, 22.10. 16:00 1023 - 1,7
Di, 22.10. 15:30 1023 - 1,1
Di, 22.10. 15:00 1023 - 1,0
Di, 22.10. 14:30 1024 - 0,4
Ortszeit Schneehöhe (cm)
Di, 22.10. 14:00 0
Di, 22.10. 8:00 0
Di, 22.10. 2:00 0
Mo, 21.10. 20:00 0
Mo, 21.10. 14:00 0
Mo, 21.10. 8:00 0
Mo, 21.10. 2:00 0
So, 20.10. 20:00 0
Ortszeit Schneehöhe (cm)
Di, 22.10. 17:30 0
Di, 22.10. 17:20 0
Di, 22.10. 17:10 0
Di, 22.10. 17:00 0
Di, 22.10. 16:50 0
Di, 22.10. 16:40 0
Di, 22.10. 16:30 0
Di, 22.10. 16:00 0
Di, 22.10. 15:30 0
Di, 22.10. 15:00 0
Di, 22.10. 14:30 0
Link zu dieser Seite / Seite empfehlen

Das Wetter in ...